Time;durP1;ratioP1;P1;durP2;ratioP2;P2;SDS_P1;SDS_P2;PMS_P1;PMS_P2;Temp;Humidity;BMP_temperature;BMP_pressure;BME280_temperature;BME280_humidity;BME280_pressure;Samples;Min_cycle;Max_cycle;Signal;HPM_P1;HPM_P2
2022/05/14 00:01:09;;;;;;;14.93;2.05;;;12.90;99.90;;;;;;5047018;28;19944;-54
2022/05/14 00:03:39;;;;;;;9.23;3.10;;;12.80;99.90;;;;;;5046500;28;20045;-52
2022/05/14 00:06:12;;;;;;;14.32;3.00;;;12.80;99.90;;;;;;5045009;28;20053;-53
2022/05/14 00:08:39;;;;;;;9.90;2.60;;;12.80;99.90;;;;;;5046726;28;20112;-52
2022/05/14 00:13:52;;;;;;;10.10;2.28;;;12.80;99.90;;;;;;5046780;28;20132;-55
2022/05/14 00:16:19;;;;;;;14.13;4.05;;;12.80;99.90;;;;;;5046693;28;20045;-54
2022/05/14 00:18:46;;;;;;;15.93;3.13;;;12.70;99.90;;;;;;5046698;28;20119;-55
2022/05/14 00:21:13;;;;;;;13.55;2.58;;;12.70;99.90;;;;;;5043442;28;20099;-55
2022/05/14 00:23:40;;;;;;;21.23;3.03;;;12.70;99.90;;;;;;5046623;28;20106;-57
2022/05/14 00:26:07;;;;;;;15.55;2.75;;;12.70;99.90;;;;;;5047085;28;20049;-55
2022/05/14 00:28:34;;;;;;;9.55;2.38;;;12.70;99.90;;;;;;5046853;28;20076;-54
2022/05/14 00:31:00;;;;;;;8.02;2.33;;;12.70;99.90;;;;;;5047088;28;20598;-53
2022/05/14 00:33:27;;;;;;;12.23;2.58;;;12.70;99.90;;;;;;5045851;28;20049;-53
2022/05/14 00:35:54;;;;;;;13.02;2.92;;;12.70;99.90;;;;;;5046317;28;20148;-55
2022/05/14 00:38:21;;;;;;;11.23;2.72;;;12.80;99.90;;;;;;4693262;28;9999747;-53
2022/05/14 00:40:54;;;;;;;11.20;4.95;;;12.70;99.90;;;;;;5045837;28;20076;-56
2022/05/14 00:43:21;;;;;;;9.45;3.67;;;12.60;99.90;;;;;;5040077;28;20131;-53
2022/05/14 00:45:58;;;;;;;15.82;2.75;;;12.50;99.90;;;;;;5046260;28;20049;-54
2022/05/14 00:48:26;;;;;;;17.50;3.72;;;12.50;99.90;;;;;;5045603;28;20053;-55
2022/05/14 00:50:54;;;;;;;16.98;2.92;;;12.50;99.90;;;;;;5028599;28;20098;-55
2022/05/14 00:53:27;;;;;;;24.15;3.35;;;12.40;99.90;;;;;;5028982;28;20048;-54
2022/05/14 00:55:55;;;;;;;17.02;3.38;;;12.40;99.90;;;;;;5044527;28;20072;-54
2022/05/14 00:58:44;;;;;;;11.43;2.38;;;12.40;99.90;;;;;;5047921;28;20087;-54
2022/05/14 01:01:11;;;;;;;12.02;2.50;;;12.30;99.90;;;;;;5034729;28;20079;-58
2022/05/14 01:03:38;;;;;;;15.57;2.88;;;12.30;99.90;;;;;;5050644;28;20136;-54
2022/05/14 01:06:06;;;;;;;14.23;3.85;;;12.30;99.90;;;;;;5049892;28;20045;-54
2022/05/14 01:08:33;;;;;;;11.35;2.53;;;12.30;99.90;;;;;;5048841;28;20095;-56
2022/05/14 01:11:00;;;;;;;12.60;2.80;;;12.30;99.90;;;;;;5048600;28;20072;-53
2022/05/14 01:13:26;;;;;;;12.70;2.65;;;12.30;99.90;;;;;;5049998;28;20463;-53
2022/05/14 01:15:55;;;;;;;15.70;3.25;;;12.30;99.90;;;;;;5049931;28;20133;-53
2022/05/14 01:18:23;;;;;;;20.50;3.45;;;12.20;99.90;;;;;;5050232;28;20127;-55
2022/05/14 01:20:58;;;;;;;11.25;2.70;;;12.20;99.90;;;;;;5049605;28;20415;-53
2022/05/14 01:26:35;;;;;;;7.93;2.40;;;12.10;99.90;;;;;;5045600;28;20587;-54
2022/05/14 01:29:08;;;;;;;14.00;3.15;;;12.10;99.90;;;;;;5049684;28;20163;-54
2022/05/14 01:31:36;;;;;;;18.65;4.15;;;12.10;99.90;;;;;;5049498;28;20069;-54
2022/05/14 01:34:08;;;;;;;13.13;2.83;;;12.10;99.90;;;;;;5049142;28;20486;-53
2022/05/14 01:36:36;;;;;;;17.02;3.10;;;12.10;99.90;;;;;;5049814;28;20076;-53
2022/05/14 01:39:03;;;;;;;22.42;3.17;;;12.10;99.90;;;;;;5049712;28;20085;-52
2022/05/14 01:41:30;;;;;;;14.07;3.28;;;12.10;99.90;;;;;;5049431;28;20128;-56
2022/05/14 01:43:56;;;;;;;16.33;2.05;;;12.10;99.90;;;;;;5049930;28;20080;-56
2022/05/14 01:46:23;;;;;;;17.00;2.97;;;12.10;99.90;;;;;;5049470;28;20084;-55
2022/05/14 01:48:50;;;;;;;8.40;2.67;;;12.00;99.90;;;;;;5049485;28;20103;-59
2022/05/14 01:51:17;;;;;;;17.67;3.30;;;12.00;99.90;;;;;;5049369;28;20045;-55
2022/05/14 01:53:44;;;;;;;15.35;3.95;;;12.00;99.90;;;;;;5049441;28;20068;-55
2022/05/14 01:56:11;;;;;;;15.25;3.05;;;12.00;99.90;;;;;;5048605;28;20077;-54
2022/05/14 01:58:38;;;;;;;15.50;3.67;;;12.00;99.90;;;;;;5049004;28;20049;-55
2022/05/14 02:01:14;;;;;;;11.40;2.63;;;11.90;99.90;;;;;;5049526;28;20421;-54
2022/05/14 02:03:44;;;;;;;13.73;3.28;;;11.90;99.90;;;;;;5047375;28;20136;-55
2022/05/14 02:06:11;;;;;;;11.88;2.95;;;11.90;99.90;;;;;;5049442;28;20554;-56
2022/05/14 02:08:37;;;;;;;10.13;2.53;;;11.90;99.90;;;;;;5048788;28;20045;-56
2022/05/14 02:11:04;;;;;;;12.63;2.70;;;11.90;99.90;;;;;;5050152;28;20510;-54
2022/05/14 02:13:34;;;;;;;11.48;3.28;;;11.80;99.90;;;;;;5049769;28;20080;-54
2022/05/14 02:16:01;;;;;;;10.68;3.72;;;11.80;99.90;;;;;;5049072;28;20064;-54
2022/05/14 02:18:28;;;;;;;10.38;3.20;;;11.80;99.90;;;;;;5048878;28;20072;-53
2022/05/14 02:20:55;;;;;;;15.20;2.85;;;11.70;99.90;;;;;;5050027;28;20136;-55
2022/05/14 02:23:22;;;;;;;14.75;4.38;;;11.70;99.90;;;;;;5049215;28;20119;-53
2022/05/14 02:25:48;;;;;;;8.98;2.58;;;11.80;99.90;;;;;;5048358;28;20063;-55
2022/05/14 02:28:15;;;;;;;14.43;4.22;;;11.70;99.90;;;;;;5047982;28;20590;-56
2022/05/14 02:30:42;;;;;;;9.93;2.65;;;11.60;99.90;;;;;;5042984;28;20075;-56
2022/05/14 02:33:09;;;;;;;15.85;3.53;;;11.50;99.90;;;;;;5048718;28;20053;-54
2022/05/14 02:35:36;;;;;;;13.15;3.05;;;11.50;99.90;;;;;;5048646;28;20080;-55
2022/05/14 02:38:03;;;;;;;16.35;3.42;;;11.50;99.90;;;;;;5048381;28;20518;-56
2022/05/14 02:40:30;;;;;;;10.60;2.60;;;11.40;99.90;;;;;;5048618;28;20132;-56
2022/05/14 02:42:56;;;;;;;13.68;2.83;;;11.40;99.90;;;;;;5048491;28;20167;-55
2022/05/14 02:45:23;;;;;;;8.55;2.72;;;11.50;99.90;;;;;;5047985;28;20076;-55
2022/05/14 02:47:50;;;;;;;10.10;3.75;;;11.40;99.90;;;;;;5048925;28;20075;-55
2022/05/14 02:50:17;;;;;;;18.67;3.17;;;11.40;99.90;;;;;;5043521;28;20092;-55
2022/05/14 02:52:44;;;;;;;13.77;3.20;;;11.40;99.90;;;;;;5048589;28;20064;-56
2022/05/14 02:55:11;;;;;;;15.10;3.00;;;11.40;99.90;;;;;;5047985;28;20075;-55
2022/05/14 02:57:38;;;;;;;15.90;2.63;;;11.40;99.90;;;;;;5047212;28;20143;-55
2022/05/14 03:00:07;;;;;;;18.00;2.60;;;11.40;99.90;;;;;;5047989;28;20048;-56
2022/05/14 03:02:34;;;;;;;27.10;3.30;;;11.30;99.90;;;;;;5048161;28;20103;-54
2022/05/14 03:05:02;;;;;;;7.15;2.60;;;11.30;99.90;;;;;;5047773;28;20187;-55
2022/05/14 03:07:29;;;;;;;17.23;2.40;;;11.30;99.90;;;;;;5047976;28;20149;-55
2022/05/14 03:09:56;;;;;;;16.80;3.60;;;11.20;99.90;;;;;;5047728;28;20472;-56
2022/05/14 03:12:23;;;;;;;10.82;2.28;;;11.20;99.90;;;;;;5048117;28;20076;-52
2022/05/14 03:14:51;;;;;;;15.43;3.17;;;11.20;99.90;;;;;;5047728;28;20128;-53
2022/05/14 03:17:18;;;;;;;9.77;2.70;;;11.10;99.90;;;;;;5048371;28;20547;-54
2022/05/14 03:19:45;;;;;;;12.07;3.58;;;11.10;99.90;;;;;;5047259;28;20105;-53
2022/05/14 03:22:12;;;;;;;14.23;3.13;;;11.00;99.90;;;;;;5046630;28;20045;-54
2022/05/14 03:24:38;;;;;;;7.68;2.83;;;11.00;99.90;;;;;;5047832;28;20127;-53
2022/05/14 03:27:06;;;;;;;11.02;4.15;;;11.00;99.90;;;;;;5047244;28;20132;-54
2022/05/14 03:29:33;;;;;;;8.43;2.78;;;10.90;99.90;;;;;;5047191;28;20045;-54
2022/05/14 03:32:00;;;;;;;15.65;4.22;;;10.90;99.90;;;;;;5046504;28;20128;-52
2022/05/14 03:34:27;;;;;;;14.07;2.70;;;10.80;99.90;;;;;;5047495;28;20139;-53
2022/05/14 03:36:54;;;;;;;21.42;3.63;;;10.80;99.90;;;;;;5047266;28;20045;-52
2022/05/14 03:39:20;;;;;;;10.43;3.00;;;10.80;99.90;;;;;;5041135;28;20542;-55
2022/05/14 03:41:47;;;;;;;17.52;3.30;;;10.80;99.90;;;;;;5046888;28;20083;-53
2022/05/14 03:44:15;;;;;;;19.35;2.90;;;10.80;99.90;;;;;;5047482;28;20145;-53
2022/05/14 03:46:42;;;;;;;14.00;3.63;;;10.70;99.90;;;;;;5046098;28;20135;-56
2022/05/14 03:49:09;;;;;;;13.38;2.97;;;10.70;99.90;;;;;;5045427;28;20076;-51
2022/05/14 03:51:36;;;;;;;18.83;2.65;;;10.60;99.90;;;;;;5040314;28;20083;-56
2022/05/14 03:54:04;;;;;;;11.23;2.97;;;10.60;99.90;;;;;;5047895;28;20084;-55
2022/05/14 03:56:32;;;;;;;11.02;2.53;;;10.60;99.90;;;;;;5047062;28;20041;-59
2022/05/14 03:58:58;;;;;;;17.48;2.55;;;10.60;99.90;;;;;;5046345;28;20102;-56
2022/05/14 04:01:25;;;;;;;12.27;2.70;;;10.60;99.90;;;;;;5044839;28;20567;-55
2022/05/14 04:03:52;;;;;;;11.50;2.92;;;10.60;99.90;;;;;;5046581;28;20549;-57
2022/05/14 04:06:20;;;;;;;8.15;2.90;;;10.50;99.90;;;;;;5045790;28;20083;-55
2022/05/14 04:08:46;;;;;;;14.85;3.45;;;10.50;99.90;;;;;;5047007;28;20333;-53
2022/05/14 04:11:13;;;;;;;14.35;3.17;;;10.40;99.90;;;;;;5046882;28;20215;-56
2022/05/14 04:13:41;;;;;;;16.42;4.10;;;10.40;99.90;;;;;;5047186;28;20071;-56
2022/05/14 04:16:10;;;;;;;14.68;3.00;;;10.40;99.90;;;;;;5047063;28;20143;-55
2022/05/14 04:18:37;;;;;;;17.65;3.30;;;10.40;99.90;;;;;;5046009;28;20496;-54
2022/05/14 04:21:05;;;;;;;11.30;2.40;;;10.50;99.90;;;;;;5046062;28;20531;-57
2022/05/14 04:23:32;;;;;;;10.45;3.00;;;10.50;99.90;;;;;;5046797;28;20049;-56
2022/05/14 04:25:59;;;;;;;20.30;4.43;;;10.50;99.90;;;;;;5046804;28;20135;-54
2022/05/14 04:28:26;;;;;;;11.05;2.72;;;10.50;99.90;;;;;;5046860;28;20041;-57
2022/05/14 04:30:53;;;;;;;14.23;2.50;;;10.50;99.90;;;;;;5046483;28;20056;-55
2022/05/14 04:33:20;;;;;;;9.60;2.50;;;10.60;99.90;;;;;;5049507;28;20133;-54
2022/05/14 04:35:47;;;;;;;19.27;7.18;;;10.60;99.90;;;;;;5043681;28;20087;-55
2022/05/14 04:38:13;;;;;;;10.25;2.75;;;10.60;99.90;;;;;;5050122;28;20131;-55
2022/05/14 04:40:40;;;;;;;11.40;2.53;;;10.70;99.90;;;;;;5050813;28;20132;-56
2022/05/14 04:43:10;;;;;;;16.50;2.88;;;10.70;99.90;;;;;;5050223;28;20072;-56
2022/05/14 04:45:38;;;;;;;17.35;3.38;;;10.80;99.90;;;;;;5050654;28;20083;-55
2022/05/14 04:48:05;;;;;;;14.30;4.28;;;10.80;99.90;;;;;;5050786;28;20049;-54
2022/05/14 04:50:32;;;;;;;12.70;2.75;;;10.80;99.90;;;;;;5044354;28;20235;-54
2022/05/14 04:52:59;;;;;;;14.80;3.50;;;10.90;99.90;;;;;;5050584;28;20072;-53
2022/05/14 04:55:26;;;;;;;11.13;2.50;;;11.00;99.90;;;;;;5050231;28;20476;-55
2022/05/14 04:57:53;;;;;;;13.57;2.90;;;11.10;99.90;;;;;;5050516;28;20076;-55
2022/05/14 05:00:19;;;;;;;21.30;4.75;;;11.10;99.90;;;;;;5050273;28;20076;-55
2022/05/14 05:05:32;;;;;;;25.95;4.32;;;11.10;99.90;;;;;;5049119;28;20059;-56
2022/05/14 05:07:59;;;;;;;13.30;3.63;;;11.10;99.90;;;;;;5050107;28;20049;-55
2022/05/14 05:10:26;;;;;;;17.08;2.88;;;11.10;99.90;;;;;;5047705;28;20045;-54
2022/05/14 05:12:53;;;;;;;18.77;3.30;;;11.10;99.90;;;;;;5050556;28;20470;-53
2022/05/14 05:15:20;;;;;;;17.60;3.03;;;11.20;99.90;;;;;;5050142;28;20532;-56
2022/05/14 05:17:47;;;;;;;16.25;3.90;;;11.20;99.90;;;;;;5051127;28;20099;-55
2022/05/14 05:20:13;;;;;;;14.95;3.33;;;11.20;99.90;;;;;;5048491;28;20128;-56
2022/05/14 05:22:40;;;;;;;16.02;3.67;;;11.30;99.90;;;;;;5050415;28;20084;-56
2022/05/14 05:25:09;;;;;;;13.70;3.58;;;11.30;99.90;;;;;;5050048;28;20076;-55
2022/05/14 05:27:36;;;;;;;12.57;3.38;;;11.30;99.90;;;;;;5049374;28;20144;-56
2022/05/14 05:30:03;;;;;;;14.52;3.50;;;11.40;99.90;;;;;;5049995;28;20508;-48
2022/05/14 05:32:30;;;;;;;13.02;3.40;;;11.40;99.90;;;;;;5049186;28;20213;-54
2022/05/14 05:34:57;;;;;;;13.05;4.43;;;11.40;99.90;;;;;;5042502;28;20084;-51
2022/05/14 05:37:24;;;;;;;10.57;3.20;;;11.50;99.90;;;;;;5049817;28;20124;-55
2022/05/14 05:39:50;;;;;;;12.35;3.67;;;11.50;99.90;;;;;;5049444;28;20135;-52
2022/05/14 05:42:17;;;;;;;9.75;3.53;;;11.60;99.90;;;;;;5050326;28;20136;-55
2022/05/14 05:44:44;;;;;;;13.68;2.90;;;11.60;99.90;;;;;;5048500;28;20049;-51
2022/05/14 05:47:11;;;;;;;12.40;3.15;;;11.60;99.90;;;;;;5049750;28;20477;-53
2022/05/14 05:49:38;;;;;;;18.65;4.10;;;11.70;99.90;;;;;;5048693;28;20128;-54
2022/05/14 05:52:05;;;;;;;15.55;4.18;;;11.80;99.90;;;;;;5049299;28;20066;-56
2022/05/14 05:57:18;;;;;;;16.63;3.35;;;12.00;99.90;;;;;;5048905;28;20072;-54
2022/05/14 05:59:44;;;;;;;17.20;3.15;;;12.00;99.90;;;;;;5049555;28;20045;-51
2022/05/14 06:02:11;;;;;;;20.17;3.20;;;12.00;99.90;;;;;;5049202;28;20554;-52
2022/05/14 06:04:38;;;;;;;14.90;3.35;;;12.00;99.90;;;;;;5048524;28;20052;-49
2022/05/14 06:07:05;;;;;;;16.35;4.20;;;12.10;99.90;;;;;;5039861;28;20515;-49
2022/05/14 06:09:32;;;;;;;18.33;4.90;;;12.10;99.90;;;;;;5049761;28;20084;-52
2022/05/14 06:11:59;;;;;;;26.13;6.15;;;12.10;99.90;;;;;;5048845;28;20056;-53
2022/05/14 06:14:26;;;;;;;25.88;4.00;;;12.10;99.90;;;;;;5049543;28;20128;-55
2022/05/14 06:16:53;;;;;;;10.75;3.38;;;12.20;99.90;;;;;;5049157;28;20037;-54
2022/05/14 06:19:20;;;;;;;13.68;3.90;;;12.30;99.90;;;;;;5047360;28;20072;-55
2022/05/14 06:21:46;;;;;;;19.58;4.60;;;12.30;99.90;;;;;;5048861;28;20141;-54
2022/05/14 06:24:13;;;;;;;18.45;4.03;;;12.40;99.90;;;;;;5047391;28;20060;-53
2022/05/14 06:26:40;;;;;;;11.52;3.55;;;12.40;99.90;;;;;;5048701;28;20091;-54
2022/05/14 06:29:07;;;;;;;12.15;3.50;;;12.50;99.90;;;;;;5050276;28;20099;-55
2022/05/14 06:31:34;;;;;;;16.83;3.80;;;12.50;99.90;;;;;;5048969;28;20083;-56
2022/05/14 06:34:01;;;;;;;31.45;5.85;;;12.60;99.90;;;;;;5048963;28;20080;-54
2022/05/14 06:36:28;;;;;;;15.57;4.05;;;12.60;99.90;;;;;;5043622;28;20073;-55
2022/05/14 06:38:54;;;;;;;18.77;4.30;;;12.50;99.90;;;;;;5048838;28;20480;-54
2022/05/14 06:41:21;;;;;;;13.43;4.05;;;12.40;99.90;;;;;;5048104;28;20049;-55
2022/05/14 06:43:48;;;;;;;16.58;4.55;;;12.40;99.90;;;;;;5048662;28;20102;-53
2022/05/14 06:46:15;;;;;;;25.20;5.15;;;12.50;99.90;;;;;;5048305;28;20084;-54
2022/05/14 06:48:42;;;;;;;23.08;5.65;;;12.60;99.90;;;;;;5045043;28;20731;-55
2022/05/14 06:51:11;;;;;;;14.73;4.40;;;12.70;99.90;;;;;;5048690;28;20144;-54
2022/05/14 06:53:38;;;;;;;23.42;4.75;;;12.80;99.90;;;;;;5047133;28;20087;-53
2022/05/14 06:56:05;;;;;;;18.42;5.00;;;12.80;99.90;;;;;;5048180;28;20084;-56
2022/05/14 06:58:33;;;;;;;23.50;4.60;;;12.80;99.90;;;;;;5046719;28;20083;-54
2022/05/14 07:01:00;;;;;;;19.75;4.38;;;12.90;99.90;;;;;;5048733;28;20562;-55
2022/05/14 07:08:57;;;;;;;23.30;5.50;;;13.20;99.90;;;;;;5045779;28;20084;-56
2022/05/14 07:11:24;;;;;;;20.33;5.25;;;13.20;99.90;;;;;;5047069;28;20106;-55
2022/05/14 07:13:51;;;;;;;21.52;6.10;;;13.30;99.90;;;;;;5046315;28;20140;-56
2022/05/14 07:16:18;;;;;;;17.42;4.80;;;13.30;99.90;;;;;;5047315;28;20079;-55
2022/05/14 07:18:45;;;;;;;23.92;4.00;;;13.40;99.90;;;;;;5046835;28;20048;-54
2022/05/14 07:21:12;;;;;;;15.25;4.00;;;13.40;99.90;;;;;;5046709;28;20091;-54
2022/05/14 07:23:39;;;;;;;17.67;4.97;;;13.30;99.90;;;;;;4692416;27;10000442;-52
2022/05/14 07:26:06;;;;;;;18.77;4.82;;;13.30;99.90;;;;;;5042279;28;20077;-52
2022/05/14 07:28:34;;;;;;;17.35;4.20;;;13.30;99.90;;;;;;5051375;28;20114;-53
2022/05/14 07:31:01;;;;;;;22.42;5.07;;;13.40;99.90;;;;;;5045076;28;20139;-53
2022/05/14 07:33:28;;;;;;;18.25;4.53;;;13.50;99.90;;;;;;5044130;28;20077;-53
2022/05/14 07:35:55;;;;;;;17.63;4.82;;;13.60;99.90;;;;;;5041389;28;20052;-53
2022/05/14 07:38:22;;;;;;;21.60;4.53;;;13.60;99.90;;;;;;5042213;28;20654;-53
2022/05/14 07:40:49;;;;;;;15.18;5.88;;;13.60;99.90;;;;;;5044061;28;20044;-49
2022/05/14 07:43:18;;;;;;;13.15;3.92;;;13.60;99.90;;;;;;5043850;28;20072;-52
2022/05/14 07:45:48;;;;;;;12.13;3.83;;;13.70;99.90;;;;;;5041498;28;20064;-53
2022/05/14 07:48:20;;;;;;;29.45;5.00;;;13.70;99.90;;;;;;5034086;28;20487;-50
2022/05/14 07:50:47;;;;;;;21.88;4.78;;;13.80;99.90;;;;;;5037499;28;20159;-55
2022/05/14 07:53:15;;;;;;;20.65;4.47;;;13.90;99.90;;;;;;5039433;28;20148;-53
2022/05/14 07:55:43;;;;;;;20.05;4.18;;;13.80;99.90;;;;;;5042340;28;20136;-53
2022/05/14 07:58:10;;;;;;;24.33;5.53;;;13.70;99.90;;;;;;5042285;28;20136;-53
2022/05/14 08:00:37;;;;;;;18.52;4.72;;;13.70;99.90;;;;;;5041897;28;20128;-54
2022/05/14 08:03:04;;;;;;;30.02;4.65;;;13.70;99.90;;;;;;5041696;28;20049;-54
2022/05/14 08:05:31;;;;;;;20.90;4.90;;;13.70;99.90;;;;;;5041359;28;20089;-55
2022/05/14 08:07:58;;;;;;;19.33;4.35;;;13.80;99.90;;;;;;5042724;28;20087;-54
2022/05/14 08:10:25;;;;;;;20.25;5.18;;;13.80;99.90;;;;;;5043167;28;20136;-53
2022/05/14 08:12:55;;;;;;;17.23;4.35;;;13.80;99.90;;;;;;5043019;28;20579;-54
2022/05/14 08:15:23;;;;;;;15.15;3.85;;;13.90;99.90;;;;;;5042214;28;20072;-53
2022/05/14 08:17:49;;;;;;;14.30;4.07;;;13.90;99.90;;;;;;5044498;28;20087;-55
2022/05/14 08:20:16;;;;;;;14.15;4.82;;;14.00;99.90;;;;;;5045869;28;20061;-52
2022/05/14 08:25:29;;;;;;;17.25;5.70;;;14.10;99.90;;;;;;5039961;28;20092;-54
2022/05/14 08:27:56;;;;;;;23.67;6.05;;;14.10;99.90;;;;;;5046279;28;20140;-56
2022/05/14 08:30:30;;;;;;;20.30;5.13;;;14.20;99.90;;;;;;5041479;28;20151;-52
2022/05/14 08:32:57;;;;;;;17.63;5.18;;;14.30;99.90;;;;;;5044034;28;20049;-55
2022/05/14 08:35:24;;;;;;;24.40;4.35;;;14.40;99.90;;;;;;5047107;28;20056;-56
2022/05/14 08:37:52;;;;;;;19.30;4.15;;;14.40;99.90;;;;;;5045557;28;20235;-53
2022/05/14 08:40:42;;;;;;;24.13;5.53;;;14.50;99.90;;;;;;5044692;28;20135;-54
2022/05/14 08:43:15;;;;;;;19.67;4.55;;;14.50;99.90;;;;;;5041455;28;20044;-53
2022/05/14 08:45:42;;;;;;;22.08;5.55;;;14.70;99.90;;;;;;5044018;28;20061;-53
2022/05/14 08:48:30;;;;;;;23.30;6.43;;;14.80;99.90;;;;;;5044044;28;20069;-55
2022/05/14 08:51:18;;;;;;;23.95;5.88;;;14.90;99.90;;;;;;5046353;28;20080;-54
2022/05/14 08:53:46;;;;;;;16.17;4.90;;;15.00;99.90;;;;;;5029460;28;20053;-53
2022/05/14 08:56:13;;;;;;;21.45;6.10;;;15.20;99.90;;;;;;5041564;28;20048;-54
2022/05/14 08:58:46;;;;;;;21.67;5.10;;;15.30;99.90;;;;;;5044070;28;20723;-54
2022/05/14 09:01:15;;;;;;;16.20;4.60;;;15.40;99.90;;;;;;5040352;28;20132;-53
2022/05/14 09:03:43;;;;;;;30.77;7.28;;;15.40;99.90;;;;;;5042738;28;20497;-53
2022/05/14 09:06:10;;;;;;;22.20;5.32;;;15.40;99.90;;;;;;5044279;28;20092;-55
2022/05/14 09:08:37;;;;;;;29.67;5.15;;;15.40;99.90;;;;;;5045456;28;20045;-54
2022/05/14 09:11:10;;;;;;;17.27;3.88;;;15.50;99.90;;;;;;5044798;28;20893;-52
2022/05/14 09:13:43;;;;;;;18.90;3.92;;;15.60;99.90;;;;;;5043168;28;20132;-56
2022/05/14 09:16:20;;;;;;;14.88;4.55;;;15.60;99.90;;;;;;5045613;28;20041;-53
2022/05/14 09:18:51;;;;;;;17.80;5.40;;;15.70;99.90;;;;;;5045211;28;20061;-53
2022/05/14 09:21:21;;;;;;;18.80;4.75;;;15.90;99.90;;;;;;5042246;28;20124;-54
2022/05/14 09:23:55;;;;;;;16.55;4.88;;;16.00;99.90;;;;;;5048364;28;20080;-55
2022/05/14 09:26:37;;;;;;;17.70;5.57;;;16.10;99.90;;;;;;5040937;28;20080;-56
2022/05/14 09:29:29;;;;;;;18.13;4.38;;;16.10;99.90;;;;;;5048345;28;20128;-55
2022/05/14 09:32:00;;;;;;;17.42;4.00;;;16.20;99.90;;;;;;5038514;28;20140;-55
2022/05/14 09:34:32;;;;;;;18.92;4.45;;;16.20;99.90;;;;;;5049530;28;20067;-52
2022/05/14 09:37:07;;;;;;;13.50;3.42;;;16.30;99.90;;;;;;5045248;28;20136;-52
2022/05/14 09:39:34;;;;;;;20.02;4.07;;;16.40;99.90;;;;;;5045300;28;20572;-54
2022/05/14 09:42:01;;;;;;;22.42;4.07;;;16.50;99.90;;;;;;5045367;28;20478;-53
2022/05/14 09:44:45;;;;;;;15.38;4.47;;;16.60;99.90;;;;;;5046327;28;20045;-53
2022/05/14 09:47:24;;;;;;;19.02;4.85;;;16.70;99.00;;;;;;5039689;28;20080;-52
2022/05/14 09:49:58;;;;;;;16.75;4.43;;;16.70;99.70;;;;;;5044945;28;20045;-55
2022/05/14 09:52:29;;;;;;;15.02;3.20;;;16.80;99.40;;;;;;5044748;28;20057;-52
2022/05/14 09:54:56;;;;;;;17.85;4.00;;;16.90;98.40;;;;;;5025928;28;20152;-53
2022/05/14 09:57:47;;;;;;;16.23;3.20;;;17.30;99.50;;;;;;5045213;28;20056;-54
2022/05/14 10:00:23;;;;;;;17.77;3.47;;;17.80;97.50;;;;;;5044237;28;20144;-54
2022/05/14 10:02:57;;;;;;;17.85;4.18;;;18.10;96.00;;;;;;5027645;28;20076;-55
2022/05/14 10:05:36;;;;;;;18.95;3.58;;;18.30;96.30;;;;;;5043664;28;20059;-53
2022/05/14 10:08:20;;;;;;;11.15;3.50;;;18.70;96.70;;;;;;5045148;28;20048;-54
2022/05/14 10:11:17;;;;;;;14.60;3.00;;;19.20;96.50;;;;;;5044309;28;20139;-53
2022/05/14 10:14:03;;;;;;;12.57;3.00;;;19.60;94.40;;;;;;5043122;28;20455;-56
2022/05/14 10:16:42;;;;;;;13.88;3.90;;;19.90;94.10;;;;;;5041272;28;20139;-51
2022/05/14 10:19:27;;;;;;;12.68;2.90;;;19.90;92.60;;;;;;5043279;28;20563;-57
2022/05/14 10:22:25;;;;;;;14.63;2.92;;;19.90;95.20;;;;;;5037072;28;20107;-54
2022/05/14 10:28:10;;;;;;;12.27;2.88;;;19.50;94.80;;;;;;5043067;28;20734;-51
2022/05/14 10:30:43;;;;;;;12.80;3.63;;;19.70;94.20;;;;;;5040117;28;20076;-56
2022/05/14 10:33:17;;;;;;;16.17;3.00;;;20.00;93.90;;;;;;5045051;28;20057;-55
2022/05/14 10:35:54;;;;;;;10.80;3.00;;;20.40;93.90;;;;;;5027381;28;20318;-53
2022/05/14 10:38:27;;;;;;;15.40;3.25;;;20.70;91.90;;;;;;5044983;28;20092;-53
2022/05/14 10:40:56;;;;;;;9.80;3.00;;;20.70;91.00;;;;;;5043802;28;20080;-54
2022/05/14 10:43:33;;;;;;;12.63;3.25;;;20.80;93.20;;;;;;5044131;28;20057;-53
2022/05/14 10:46:03;;;;;;;19.08;4.07;;;20.70;90.50;;;;;;5044931;28;20456;-54
2022/05/14 10:48:35;;;;;;;12.70;3.90;;;20.40;92.40;;;;;;5043415;28;20055;-56
2022/05/14 10:51:03;;;;;;;10.30;2.67;;;20.20;91.90;;;;;;5045344;28;20110;-54
2022/05/14 10:53:29;;;;;;;16.83;2.97;;;20.10;92.30;;;;;;5044350;28;20088;-52
2022/05/14 10:56:01;;;;;;;13.73;2.75;;;20.00;92.40;;;;;;5043289;28;20049;-54
2022/05/14 10:58:45;;;;;;;9.18;3.83;;;19.90;90.50;;;;;;5043863;28;20041;-55
2022/05/14 11:01:51;;;;;;;9.77;2.78;;;19.70;89.00;;;;;;5039043;28;20127;-55
2022/05/14 11:04:24;;;;;;;12.00;2.28;;;19.50;89.70;;;;;;5022403;28;20049;-53
2022/05/14 11:07:02;;;;;;;15.88;3.28;;;19.40;90.90;;;;;;5044332;28;20056;-55
2022/05/14 11:09:48;;;;;;;16.50;2.65;;;19.30;90.70;;;;;;5036210;28;20128;-54
2022/05/14 11:12:21;;;;;;;8.45;2.78;;;19.30;91.60;;;;;;5043160;28;20048;-51
2022/05/14 11:14:53;;;;;;;13.43;5.55;;;19.40;90.10;;;;;;5044712;28;20076;-56
2022/05/14 11:17:31;;;;;;;12.68;2.70;;;19.20;89.30;;;;;;5042032;28;20092;-54
2022/05/14 11:20:04;;;;;;;15.18;3.30;;;19.20;88.40;;;;;;5045070;28;20056;-54
2022/05/14 11:22:39;;;;;;;16.93;5.60;;;19.30;90.70;;;;;;5042876;28;20087;-57
2022/05/14 11:25:13;;;;;;;9.48;2.70;;;19.40;90.70;;;;;;5043108;28;20160;-49
2022/05/14 11:27:41;;;;;;;12.40;2.90;;;19.40;90.40;;;;;;5043550;28;20057;-52
2022/05/14 11:30:10;;;;;;;10.02;3.70;;;19.40;91.20;;;;;;5043693;28;20045;-54
2022/05/14 11:32:48;;;;;;;19.27;4.30;;;19.40;91.00;;;;;;5034568;28;20562;-52
2022/05/14 11:35:15;;;;;;;12.05;3.47;;;19.50;88.80;;;;;;5026266;28;20126;-55
2022/05/14 11:37:45;;;;;;;11.75;3.15;;;19.50;90.70;;;;;;5042263;28;20124;-54
2022/05/14 11:40:21;;;;;;;6.32;2.40;;;19.40;90.50;;;;;;5043410;28;20127;-54
2022/05/14 11:42:49;;;;;;;14.48;3.67;;;19.40;89.80;;;;;;5042466;28;20683;-55
2022/05/14 11:45:17;;;;;;;16.92;2.88;;;19.40;91.00;;;;;;5034870;28;20106;-55
2022/05/14 11:47:52;;;;;;;9.40;3.00;;;19.50;91.10;;;;;;5042932;28;20049;-53
2022/05/14 11:50:23;;;;;;;8.00;2.70;;;19.70;90.60;;;;;;5042989;28;20095;-56
2022/05/14 11:53:19;;;;;;;12.23;3.65;;;19.90;90.90;;;;;;5042807;28;20132;-55
2022/05/14 11:56:20;;;;;;;12.55;2.92;;;20.00;89.30;;;;;;5032327;28;20072;-52
2022/05/14 11:59:35;;;;;;;8.77;2.92;;;20.00;89.70;;;;;;5022922;28;20492;-54
2022/05/14 12:02:02;;;;;;;;;;;19.80;87.00;;;;;;5041030;28;20176;-55
2022/05/14 12:04:34;;;;;;;9.60;2.92;;;19.80;86.40;;;;;;5043845;28;19964;-50
2022/05/14 12:07:34;;;;;;;11.05;3.35;;;19.90;88.60;;;;;;5042199;28;20055;-55
2022/05/14 12:10:09;;;;;;;7.28;2.50;;;20.00;86.40;;;;;;5035260;28;20083;-54
2022/05/14 12:12:53;;;;;;;12.98;3.20;;;20.10;89.40;;;;;;5039789;28;20457;-55
2022/05/14 12:15:22;;;;;;;10.30;2.45;;;20.10;89.40;;;;;;5042645;28;20139;-55
2022/05/14 12:17:49;;;;;;;7.13;2.80;;;20.30;90.00;;;;;;5042234;28;20484;-54
2022/05/14 12:20:25;;;;;;;8.15;2.28;;;20.30;86.50;;;;;;5043420;28;20139;-57
2022/05/14 12:22:57;;;;;;;15.65;3.22;;;20.30;84.90;;;;;;5010005;28;20107;-51
2022/05/14 12:25:35;;;;;;;13.45;3.60;;;20.20;82.60;;;;;;5036989;28;20254;-59
2022/05/14 12:28:01;;;;;;;6.78;3.20;;;20.00;83.70;;;;;;5043683;28;20130;-55
2022/05/14 12:33:30;;;;;;;13.48;5.00;;;20.20;85.30;;;;;;5023959;28;20097;-55
2022/05/14 12:35:57;;;;;;;6.40;2.08;;;20.30;84.40;;;;;;5039228;28;20148;-55
2022/05/14 12:38:33;;;;;;;15.07;3.90;;;20.40;84.50;;;;;;5004735;28;20128;-56
2022/05/14 12:41:00;;;;;;;8.90;2.53;;;20.60;81.30;;;;;;5029737;28;20175;-55
2022/05/14 12:43:27;;;;;;;20.48;5.80;;;20.70;84.40;;;;;;5040966;28;20047;-55
2022/05/14 12:46:08;;;;;;;10.13;2.75;;;20.80;84.50;;;;;;5041534;28;20079;-52
2022/05/14 12:48:47;;;;;;;10.52;3.50;;;20.80;79.80;;;;;;5033956;28;20110;-54
2022/05/14 12:51:21;;;;;;;11.98;2.65;;;20.60;82.40;;;;;;5041281;28;20041;-55
2022/05/14 12:53:48;;;;;;;9.40;2.97;;;20.80;83.50;;;;;;5042708;28;20068;-55
2022/05/14 12:56:16;;;;;;;12.30;3.42;;;20.90;84.20;;;;;;5043770;28;20521;-55
2022/05/14 12:58:43;;;;;;;10.07;2.90;;;21.10;84.10;;;;;;5043481;28;20139;-54
2022/05/14 13:01:10;;;;;;;9.30;2.97;;;21.10;84.70;;;;;;5044247;28;20611;-57
2022/05/14 13:03:46;;;;;;;7.72;2.50;;;21.10;84.50;;;;;;5044327;28;20079;-55
2022/05/14 13:06:16;;;;;;;9.60;3.03;;;21.20;81.90;;;;;;5043443;28;20138;-54
2022/05/14 13:08:44;;;;;;;11.43;4.00;;;21.30;84.00;;;;;;5043929;28;20080;-53
2022/05/14 13:11:16;;;;;;;11.20;3.75;;;21.40;83.80;;;;;;5043789;28;20134;-56
2022/05/14 13:14:14;;;;;;;14.07;3.10;;;21.60;82.20;;;;;;5044818;28;20428;-52
2022/05/14 13:16:40;;;;;;;7.70;2.30;;;21.60;81.30;;;;;;5042826;28;20116;-57
2022/05/14 13:19:38;;;;;;;9.43;3.40;;;21.60;83.20;;;;;;5045132;28;20049;-58